sensor_id;sensor_type;location;lat;lon;timestamp;P1;P2;P0
56688;PMS5003;42565;53.342;-1.534;2022-07-06T00:02:26;3;3;
56688;PMS5003;42565;53.342;-1.534;2022-07-06T00:04:53;3;3;
56688;PMS5003;42565;53.342;-1.534;2022-07-06T00:07:21;6;5;
56688;PMS5003;42565;53.342;-1.534;2022-07-06T00:09:48;5;4;
56688;PMS5003;42565;53.342;-1.534;2022-07-06T00:12:15;4;4;
56688;PMS5003;42565;53.342;-1.534;2022-07-06T00:14:42;6;5;
56688;PMS5003;42565;53.342;-1.534;2022-07-06T00:17:09;3;3;
56688;PMS5003;42565;53.342;-1.534;2022-07-06T00:19:36;5;5;
56688;PMS5003;42565;53.342;-1.534;2022-07-06T00:22:03;5;5;
56688;PMS5003;42565;53.342;-1.534;2022-07-06T00:24:30;8;6;
56688;PMS5003;42565;53.342;-1.534;2022-07-06T00:26:58;7;7;
56688;PMS5003;42565;53.342;-1.534;2022-07-06T00:29:25;8;6;
56688;PMS5003;42565;53.342;-1.534;2022-07-06T00:31:53;5;5;
56688;PMS5003;42565;53.342;-1.534;2022-07-06T00:34:19;6;6;
56688;PMS5003;42565;53.342;-1.534;2022-07-06T00:36:47;5;5;
56688;PMS5003;42565;53.342;-1.534;2022-07-06T00:39:14;7;6;
56688;PMS5003;42565;53.342;-1.534;2022-07-06T00:41:40;6;6;
56688;PMS5003;42565;53.342;-1.534;2022-07-06T00:44:07;7;7;
56688;PMS5003;42565;53.342;-1.534;2022-07-06T00:46:35;9;8;
56688;PMS5003;42565;53.342;-1.534;2022-07-06T00:49:42;8;7;
56688;PMS5003;42565;53.342;-1.534;2022-07-06T00:52:10;5;4;
56688;PMS5003;42565;53.342;-1.534;2022-07-06T00:54:38;8;8;
56688;PMS5003;42565;53.342;-1.534;2022-07-06T00:57:07;6;6;
56688;PMS5003;42565;53.342;-1.534;2022-07-06T00:59:35;6;6;
56688;PMS5003;42565;53.342;-1.534;2022-07-06T01:02:02;5;5;
56688;PMS5003;42565;53.342;-1.534;2022-07-06T01:04:30;7;5;
56688;PMS5003;42565;53.342;-1.534;2022-07-06T01:06:58;7;6;
56688;PMS5003;42565;53.342;-1.534;2022-07-06T01:09:27;8;7;
56688;PMS5003;42565;53.342;-1.534;2022-07-06T01:11:54;5;5;
56688;PMS5003;42565;53.342;-1.534;2022-07-06T01:14:22;4;4;
56688;PMS5003;42565;53.342;-1.534;2022-07-06T01:16:49;4;4;
56688;PMS5003;42565;53.342;-1.534;2022-07-06T01:19:17;4;4;
56688;PMS5003;42565;53.342;-1.534;2022-07-06T01:21:43;3;3;
56688;PMS5003;42565;53.342;-1.534;2022-07-06T01:24:11;3;3;
56688;PMS5003;42565;53.342;-1.534;2022-07-06T01:26:38;2;2;
56688;PMS5003;42565;53.342;-1.534;2022-07-06T01:29:05;2;2;
56688;PMS5003;42565;53.342;-1.534;2022-07-06T01:31:33;0;0;
56688;PMS5003;42565;53.342;-1.534;2022-07-06T01:33:59;1;1;
56688;PMS5003;42565;53.342;-1.534;2022-07-06T01:36:27;0;0;
56688;PMS5003;42565;53.342;-1.534;2022-07-06T01:38:54;0;0;
56688;PMS5003;42565;53.342;-1.534;2022-07-06T01:41:22;1;1;
56688;PMS5003;42565;53.342;-1.534;2022-07-06T01:43:54;2;2;
56688;PMS5003;42565;53.342;-1.534;2022-07-06T01:46:21;1;1;
56688;PMS5003;42565;53.342;-1.534;2022-07-06T01:49:28;2;2;
56688;PMS5003;42565;53.342;-1.534;2022-07-06T01:51:55;2;2;
56688;PMS5003;42565;53.342;-1.534;2022-07-06T01:54:23;3;2;
56688;PMS5003;42565;53.342;-1.534;2022-07-06T01:56:50;1;1;
56688;PMS5003;42565;53.342;-1.534;2022-07-06T01:59:18;2;2;
56688;PMS5003;42565;53.342;-1.534;2022-07-06T02:01:45;1;1;
56688;PMS5003;42565;53.342;-1.534;2022-07-06T02:04:13;1;1;
56688;PMS5003;42565;53.342;-1.534;2022-07-06T02:06:40;1;1;
56688;PMS5003;42565;53.342;-1.534;2022-07-06T02:09:07;1;1;
56688;PMS5003;42565;53.342;-1.534;2022-07-06T02:11:34;2;2;
56688;PMS5003;42565;53.342;-1.534;2022-07-06T02:14:06;0;0;
56688;PMS5003;42565;53.342;-1.534;2022-07-06T02:16:43;0;0;
56688;PMS5003;42565;53.342;-1.534;2022-07-06T02:19:15;1;1;
56688;PMS5003;42565;53.342;-1.534;2022-07-06T02:21:42;0;0;
56688;PMS5003;42565;53.342;-1.534;2022-07-06T02:24:09;0;0;
56688;PMS5003;42565;53.342;-1.534;2022-07-06T02:26:47;1;1;
56688;PMS5003;42565;53.342;-1.534;2022-07-06T02:29:14;0;0;
56688;PMS5003;42565;53.342;-1.534;2022-07-06T02:31:42;0;0;
56688;PMS5003;42565;53.342;-1.534;2022-07-06T02:34:08;1;1;
56688;PMS5003;42565;53.342;-1.534;2022-07-06T02:36:35;1;1;
56688;PMS5003;42565;53.342;-1.534;2022-07-06T02:39:02;1;1;
56688;PMS5003;42565;53.342;-1.534;2022-07-06T02:41:29;1;1;
56688;PMS5003;42565;53.342;-1.534;2022-07-06T02:43:57;2;2;
56688;PMS5003;42565;53.342;-1.534;2022-07-06T02:46:24;2;2;
56688;PMS5003;42565;53.342;-1.534;2022-07-06T02:48:52;6;6;
56688;PMS5003;42565;53.342;-1.534;2022-07-06T02:51:19;4;4;
56688;PMS5003;42565;53.342;-1.534;2022-07-06T02:53:47;5;5;
56688;PMS5003;42565;53.342;-1.534;2022-07-06T02:56:13;5;5;
56688;PMS5003;42565;53.342;-1.534;2022-07-06T02:58:40;7;6;
56688;PMS5003;42565;53.342;-1.534;2022-07-06T03:01:07;3;3;
56688;PMS5003;42565;53.342;-1.534;2022-07-06T03:03:34;4;4;
56688;PMS5003;42565;53.342;-1.534;2022-07-06T03:06:02;5;5;
56688;PMS5003;42565;53.342;-1.534;2022-07-06T03:08:29;4;3;
56688;PMS5003;42565;53.342;-1.534;2022-07-06T03:10:56;5;4;
56688;PMS5003;42565;53.342;-1.534;2022-07-06T03:13:23;5;4;
56688;PMS5003;42565;53.342;-1.534;2022-07-06T03:15:50;3;3;
56688;PMS5003;42565;53.342;-1.534;2022-07-06T03:18:18;3;3;
56688;PMS5003;42565;53.342;-1.534;2022-07-06T03:20:45;4;4;
56688;PMS5003;42565;53.342;-1.534;2022-07-06T03:23:13;5;5;
56688;PMS5003;42565;53.342;-1.534;2022-07-06T03:25:40;3;3;
56688;PMS5003;42565;53.342;-1.534;2022-07-06T03:28:08;4;4;
56688;PMS5003;42565;53.342;-1.534;2022-07-06T03:30:35;3;2;
56688;PMS5003;42565;53.342;-1.534;2022-07-06T03:33:02;4;4;
56688;PMS5003;42565;53.342;-1.534;2022-07-06T03:35:30;6;6;
56688;PMS5003;42565;53.342;-1.534;2022-07-06T03:37:57;5;5;
56688;PMS5003;42565;53.342;-1.534;2022-07-06T03:40:24;5;5;
56688;PMS5003;42565;53.342;-1.534;2022-07-06T03:42:51;6;6;
56688;PMS5003;42565;53.342;-1.534;2022-07-06T03:45:18;6;6;
56688;PMS5003;42565;53.342;-1.534;2022-07-06T03:47:46;6;6;
56688;PMS5003;42565;53.342;-1.534;2022-07-06T03:50:13;7;7;
56688;PMS5003;42565;53.342;-1.534;2022-07-06T03:52:40;10;10;
56688;PMS5003;42565;53.342;-1.534;2022-07-06T03:55:08;8;8;
56688;PMS5003;42565;53.342;-1.534;2022-07-06T03:57:37;8;7;
56688;PMS5003;42565;53.342;-1.534;2022-07-06T04:00:04;11;11;
56688;PMS5003;42565;53.342;-1.534;2022-07-06T04:02:33;9;9;
56688;PMS5003;42565;53.342;-1.534;2022-07-06T04:05:00;9;9;
56688;PMS5003;42565;53.342;-1.534;2022-07-06T04:07:27;12;10;
56688;PMS5003;42565;53.342;-1.534;2022-07-06T04:09:54;8;8;
56688;PMS5003;42565;53.342;-1.534;2022-07-06T04:12:22;9;9;
56688;PMS5003;42565;53.342;-1.534;2022-07-06T04:14:49;8;8;
56688;PMS5003;42565;53.342;-1.534;2022-07-06T04:17:16;7;7;
56688;PMS5003;42565;53.342;-1.534;2022-07-06T04:19:49;5;5;
56688;PMS5003;42565;53.342;-1.534;2022-07-06T04:22:15;6;6;
56688;PMS5003;42565;53.342;-1.534;2022-07-06T04:24:48;7;6;
56688;PMS5003;42565;53.342;-1.534;2022-07-06T04:27:15;6;6;
56688;PMS5003;42565;53.342;-1.534;2022-07-06T04:29:41;6;6;
56688;PMS5003;42565;53.342;-1.534;2022-07-06T04:32:08;6;6;
56688;PMS5003;42565;53.342;-1.534;2022-07-06T04:34:36;8;7;
56688;PMS5003;42565;53.342;-1.534;2022-07-06T04:37:03;7;7;
56688;PMS5003;42565;53.342;-1.534;2022-07-06T04:39:30;7;7;
56688;PMS5003;42565;53.342;-1.534;2022-07-06T04:41:57;6;6;
56688;PMS5003;42565;53.342;-1.534;2022-07-06T04:44:24;7;7;
56688;PMS5003;42565;53.342;-1.534;2022-07-06T04:46:51;7;7;
56688;PMS5003;42565;53.342;-1.534;2022-07-06T04:49:18;6;6;
56688;PMS5003;42565;53.342;-1.534;2022-07-06T04:51:51;5;5;
56688;PMS5003;42565;53.342;-1.534;2022-07-06T04:54:18;6;6;
56688;PMS5003;42565;53.342;-1.534;2022-07-06T04:56:44;6;6;
56688;PMS5003;42565;53.342;-1.534;2022-07-06T04:59:12;6;5;
56688;PMS5003;42565;53.342;-1.534;2022-07-06T05:01:40;4;4;
56688;PMS5003;42565;53.342;-1.534;2022-07-06T05:04:07;6;6;
56688;PMS5003;42565;53.342;-1.534;2022-07-06T05:06:35;5;4;
56688;PMS5003;42565;53.342;-1.534;2022-07-06T05:09:02;6;5;
56688;PMS5003;42565;53.342;-1.534;2022-07-06T05:11:30;5;5;
56688;PMS5003;42565;53.342;-1.534;2022-07-06T05:13:57;6;6;
56688;PMS5003;42565;53.342;-1.534;2022-07-06T05:16:25;5;5;
56688;PMS5003;42565;53.342;-1.534;2022-07-06T05:18:52;5;5;
56688;PMS5003;42565;53.342;-1.534;2022-07-06T05:21:19;6;5;
56688;PMS5003;42565;53.342;-1.534;2022-07-06T05:23:47;5;5;
56688;PMS5003;42565;53.342;-1.534;2022-07-06T05:26:14;3;3;
56688;PMS5003;42565;53.342;-1.534;2022-07-06T05:28:41;4;4;
56688;PMS5003;42565;53.342;-1.534;2022-07-06T05:31:08;5;4;
56688;PMS5003;42565;53.342;-1.534;2022-07-06T05:33:35;4;4;
56688;PMS5003;42565;53.342;-1.534;2022-07-06T05:36:02;4;4;
56688;PMS5003;42565;53.342;-1.534;2022-07-06T05:38:29;5;4;
56688;PMS5003;42565;53.342;-1.534;2022-07-06T05:40:57;3;2;
56688;PMS5003;42565;53.342;-1.534;2022-07-06T05:43:24;5;4;
56688;PMS5003;42565;53.342;-1.534;2022-07-06T05:45:52;3;3;
56688;PMS5003;42565;53.342;-1.534;2022-07-06T05:48:19;4;4;
56688;PMS5003;42565;53.342;-1.534;2022-07-06T05:50:46;3;3;
56688;PMS5003;42565;53.342;-1.534;2022-07-06T05:53:13;4;3;
56688;PMS5003;42565;53.342;-1.534;2022-07-06T05:55:40;4;4;
56688;PMS5003;42565;53.342;-1.534;2022-07-06T05:58:08;4;3;
56688;PMS5003;42565;53.342;-1.534;2022-07-06T06:00:35;1;1;
56688;PMS5003;42565;53.342;-1.534;2022-07-06T06:03:03;4;3;
56688;PMS5003;42565;53.342;-1.534;2022-07-06T06:05:31;2;2;
56688;PMS5003;42565;53.342;-1.534;2022-07-06T06:07:58;3;3;
56688;PMS5003;42565;53.342;-1.534;2022-07-06T06:10:25;2;2;
56688;PMS5003;42565;53.342;-1.534;2022-07-06T06:12:53;2;2;
56688;PMS5003;42565;53.342;-1.534;2022-07-06T06:15:20;2;2;
56688;PMS5003;42565;53.342;-1.534;2022-07-06T06:17:47;3;2;
56688;PMS5003;42565;53.342;-1.534;2022-07-06T06:20:15;3;3;
56688;PMS5003;42565;53.342;-1.534;2022-07-06T06:22:44;1;1;
56688;PMS5003;42565;53.342;-1.534;2022-07-06T06:25:12;3;2;
56688;PMS5003;42565;53.342;-1.534;2022-07-06T06:27:39;4;3;
56688;PMS5003;42565;53.342;-1.534;2022-07-06T06:30:07;2;1;
56688;PMS5003;42565;53.342;-1.534;2022-07-06T06:32:35;2;2;
56688;PMS5003;42565;53.342;-1.534;2022-07-06T06:35:03;3;2;
56688;PMS5003;42565;53.342;-1.534;2022-07-06T06:37:30;3;3;
56688;PMS5003;42565;53.342;-1.534;2022-07-06T06:39:58;2;2;
56688;PMS5003;42565;53.342;-1.534;2022-07-06T06:42:24;1;1;
56688;PMS5003;42565;53.342;-1.534;2022-07-06T06:44:51;3;3;
56688;PMS5003;42565;53.342;-1.534;2022-07-06T06:47:18;5;4;
56688;PMS5003;42565;53.342;-1.534;2022-07-06T06:49:46;5;4;
56688;PMS5003;42565;53.342;-1.534;2022-07-06T06:52:13;5;5;
56688;PMS5003;42565;53.342;-1.534;2022-07-06T06:54:41;5;5;
56688;PMS5003;42565;53.342;-1.534;2022-07-06T06:57:09;5;5;
56688;PMS5003;42565;53.342;-1.534;2022-07-06T06:59:36;4;4;
56688;PMS5003;42565;53.342;-1.534;2022-07-06T07:02:04;5;5;
56688;PMS5003;42565;53.342;-1.534;2022-07-06T07:04:31;4;4;
56688;PMS5003;42565;53.342;-1.534;2022-07-06T07:06:59;4;4;
56688;PMS5003;42565;53.342;-1.534;2022-07-06T07:09:26;3;3;
56688;PMS5003;42565;53.342;-1.534;2022-07-06T07:11:54;3;3;
56688;PMS5003;42565;53.342;-1.534;2022-07-06T07:14:21;3;3;
56688;PMS5003;42565;53.342;-1.534;2022-07-06T07:16:52;3;3;
56688;PMS5003;42565;53.342;-1.534;2022-07-06T07:19:20;5;4;
56688;PMS5003;42565;53.342;-1.534;2022-07-06T07:21:51;2;2;
56688;PMS5003;42565;53.342;-1.534;2022-07-06T07:24:18;4;4;
56688;PMS5003;42565;53.342;-1.534;2022-07-06T07:26:46;3;3;
56688;PMS5003;42565;53.342;-1.534;2022-07-06T07:29:13;4;4;
56688;PMS5003;42565;53.342;-1.534;2022-07-06T07:31:45;4;4;
56688;PMS5003;42565;53.342;-1.534;2022-07-06T07:34:12;3;3;
56688;PMS5003;42565;53.342;-1.534;2022-07-06T07:36:39;2;2;
56688;PMS5003;42565;53.342;-1.534;2022-07-06T07:39:07;3;3;
56688;PMS5003;42565;53.342;-1.534;2022-07-06T07:41:35;3;3;
56688;PMS5003;42565;53.342;-1.534;2022-07-06T07:44:02;3;3;
56688;PMS5003;42565;53.342;-1.534;2022-07-06T07:46:30;2;2;
56688;PMS5003;42565;53.342;-1.534;2022-07-06T07:48:57;2;2;
56688;PMS5003;42565;53.342;-1.534;2022-07-06T07:51:24;2;2;
56688;PMS5003;42565;53.342;-1.534;2022-07-06T07:53:51;3;3;
56688;PMS5003;42565;53.342;-1.534;2022-07-06T07:56:19;2;2;
56688;PMS5003;42565;53.342;-1.534;2022-07-06T07:58:45;2;2;
56688;PMS5003;42565;53.342;-1.534;2022-07-06T08:01:12;2;2;
56688;PMS5003;42565;53.342;-1.534;2022-07-06T08:03:39;1;1;
56688;PMS5003;42565;53.342;-1.534;2022-07-06T08:06:06;2;1;
56688;PMS5003;42565;53.342;-1.534;2022-07-06T08:08:34;1;1;
56688;PMS5003;42565;53.342;-1.534;2022-07-06T08:11:01;2;2;
56688;PMS5003;42565;53.342;-1.534;2022-07-06T08:13:29;0;0;
56688;PMS5003;42565;53.342;-1.534;2022-07-06T08:16:04;1;1;
56688;PMS5003;42565;53.342;-1.534;2022-07-06T08:18:32;1;1;
56688;PMS5003;42565;53.342;-1.534;2022-07-06T08:21:04;2;1;
56688;PMS5003;42565;53.342;-1.534;2022-07-06T08:23:32;1;1;
56688;PMS5003;42565;53.342;-1.534;2022-07-06T08:25:59;0;0;
56688;PMS5003;42565;53.342;-1.534;2022-07-06T08:28:27;0;0;
56688;PMS5003;42565;53.342;-1.534;2022-07-06T08:30:55;1;1;
56688;PMS5003;42565;53.342;-1.534;2022-07-06T08:33:22;1;1;
56688;PMS5003;42565;53.342;-1.534;2022-07-06T08:35:49;2;2;
56688;PMS5003;42565;53.342;-1.534;2022-07-06T08:38:17;2;2;
56688;PMS5003;42565;53.342;-1.534;2022-07-06T08:40:46;1;1;
56688;PMS5003;42565;53.342;-1.534;2022-07-06T08:43:15;0;0;
56688;PMS5003;42565;53.342;-1.534;2022-07-06T08:45:42;1;1;
56688;PMS5003;42565;53.342;-1.534;2022-07-06T08:48:11;1;1;
56688;PMS5003;42565;53.342;-1.534;2022-07-06T08:50:39;0;0;
56688;PMS5003;42565;53.342;-1.534;2022-07-06T08:53:06;1;1;
56688;PMS5003;42565;53.342;-1.534;2022-07-06T08:55:33;0;0;
56688;PMS5003;42565;53.342;-1.534;2022-07-06T08:58:01;0;0;
56688;PMS5003;42565;53.342;-1.534;2022-07-06T09:00:28;0;0;
56688;PMS5003;42565;53.342;-1.534;2022-07-06T09:02:56;0;0;
56688;PMS5003;42565;53.342;-1.534;2022-07-06T09:05:24;0;0;
56688;PMS5003;42565;53.342;-1.534;2022-07-06T09:07:52;0;0;
56688;PMS5003;42565;53.342;-1.534;2022-07-06T09:10:20;0;0;
56688;PMS5003;42565;53.342;-1.534;2022-07-06T09:12:48;0;0;
56688;PMS5003;42565;53.342;-1.534;2022-07-06T09:15:16;0;0;
56688;PMS5003;42565;53.342;-1.534;2022-07-06T09:17:43;0;0;
56688;PMS5003;42565;53.342;-1.534;2022-07-06T09:20:12;0;0;
56688;PMS5003;42565;53.342;-1.534;2022-07-06T09:22:40;0;0;
56688;PMS5003;42565;53.342;-1.534;2022-07-06T09:25:08;0;0;
56688;PMS5003;42565;53.342;-1.534;2022-07-06T09:27:38;0;0;
56688;PMS5003;42565;53.342;-1.534;2022-07-06T09:30:06;0;0;
56688;PMS5003;42565;53.342;-1.534;2022-07-06T09:32:38;1;1;
56688;PMS5003;42565;53.342;-1.534;2022-07-06T09:35:06;1;1;
56688;PMS5003;42565;53.342;-1.534;2022-07-06T09:37:34;0;0;
56688;PMS5003;42565;53.342;-1.534;2022-07-06T09:40:02;1;1;
56688;PMS5003;42565;53.342;-1.534;2022-07-06T09:42:42;3;2;
56688;PMS5003;42565;53.342;-1.534;2022-07-06T09:45:09;0;0;
56688;PMS5003;42565;53.342;-1.534;2022-07-06T09:47:37;1;1;
56688;PMS5003;42565;53.342;-1.534;2022-07-06T09:50:05;0;0;
56688;PMS5003;42565;53.342;-1.534;2022-07-06T09:52:33;1;1;
56688;PMS5003;42565;53.342;-1.534;2022-07-06T09:55:05;1;1;
56688;PMS5003;42565;53.342;-1.534;2022-07-06T09:57:40;1;1;
56688;PMS5003;42565;53.342;-1.534;2022-07-06T10:00:18;0;0;
56688;PMS5003;42565;53.342;-1.534;2022-07-06T10:02:45;0;0;
56688;PMS5003;42565;53.342;-1.534;2022-07-06T10:05:13;2;1;
56688;PMS5003;42565;53.342;-1.534;2022-07-06T10:07:43;1;1;
56688;PMS5003;42565;53.342;-1.534;2022-07-06T10:10:12;1;1;
56688;PMS5003;42565;53.342;-1.534;2022-07-06T10:12:41;1;0;
56688;PMS5003;42565;53.342;-1.534;2022-07-06T10:15:10;1;1;
56688;PMS5003;42565;53.342;-1.534;2022-07-06T10:17:39;2;1;
56688;PMS5003;42565;53.342;-1.534;2022-07-06T10:20:06;0;0;
56688;PMS5003;42565;53.342;-1.534;2022-07-06T10:22:40;0;0;
56688;PMS5003;42565;53.342;-1.534;2022-07-06T10:25:07;1;1;
56688;PMS5003;42565;53.342;-1.534;2022-07-06T10:27:35;0;0;
56688;PMS5003;42565;53.342;-1.534;2022-07-06T10:30:03;2;1;
56688;PMS5003;42565;53.342;-1.534;2022-07-06T10:32:31;3;2;
56688;PMS5003;42565;53.342;-1.534;2022-07-06T10:34:58;0;0;
56688;PMS5003;42565;53.342;-1.534;2022-07-06T10:37:26;3;2;
56688;PMS5003;42565;53.342;-1.534;2022-07-06T10:39:54;2;2;
56688;PMS5003;42565;53.342;-1.534;2022-07-06T10:42:56;3;2;
56688;PMS5003;42565;53.342;-1.534;2022-07-06T10:45:59;2;2;
56688;PMS5003;42565;53.342;-1.534;2022-07-06T10:48:34;2;2;
56688;PMS5003;42565;53.342;-1.534;2022-07-06T10:51:01;0;0;
56688;PMS5003;42565;53.342;-1.534;2022-07-06T10:53:31;1;1;
56688;PMS5003;42565;53.342;-1.534;2022-07-06T10:56:00;1;1;
56688;PMS5003;42565;53.342;-1.534;2022-07-06T10:58:39;1;1;
56688;PMS5003;42565;53.342;-1.534;2022-07-06T11:01:08;2;2;
56688;PMS5003;42565;53.342;-1.534;2022-07-06T11:03:38;1;1;
56688;PMS5003;42565;53.342;-1.534;2022-07-06T11:06:07;2;2;
56688;PMS5003;42565;53.342;-1.534;2022-07-06T11:08:41;2;2;
56688;PMS5003;42565;53.342;-1.534;2022-07-06T11:11:12;1;1;
56688;PMS5003;42565;53.342;-1.534;2022-07-06T11:13:42;2;2;
56688;PMS5003;42565;53.342;-1.534;2022-07-06T11:16:14;2;2;
56688;PMS5003;42565;53.342;-1.534;2022-07-06T11:18:41;2;2;
56688;PMS5003;42565;53.342;-1.534;2022-07-06T11:21:14;1;1;
56688;PMS5003;42565;53.342;-1.534;2022-07-06T11:23:45;3;2;
56688;PMS5003;42565;53.342;-1.534;2022-07-06T11:26:13;4;3;
56688;PMS5003;42565;53.342;-1.534;2022-07-06T11:28:41;2;2;
56688;PMS5003;42565;53.342;-1.534;2022-07-06T11:31:08;3;2;
56688;PMS5003;42565;53.342;-1.534;2022-07-06T11:33:36;3;3;
56688;PMS5003;42565;53.342;-1.534;2022-07-06T11:36:12;2;2;
56688;PMS5003;42565;53.342;-1.534;2022-07-06T11:38:41;1;1;
56688;PMS5003;42565;53.342;-1.534;2022-07-06T11:41:09;2;2;
56688;PMS5003;42565;53.342;-1.534;2022-07-06T11:43:36;3;2;
56688;PMS5003;42565;53.342;-1.534;2022-07-06T11:46:03;1;1;
56688;PMS5003;42565;53.342;-1.534;2022-07-06T11:48:30;2;2;
56688;PMS5003;42565;53.342;-1.534;2022-07-06T11:50:58;2;2;
56688;PMS5003;42565;53.342;-1.534;2022-07-06T11:53:26;1;1;
56688;PMS5003;42565;53.342;-1.534;2022-07-06T11:55:53;4;3;
56688;PMS5003;42565;53.342;-1.534;2022-07-06T11:58:22;3;3;
56688;PMS5003;42565;53.342;-1.534;2022-07-06T12:01:05;2;2;
56688;PMS5003;42565;53.342;-1.534;2022-07-06T12:03:33;2;2;
56688;PMS5003;42565;53.342;-1.534;2022-07-06T12:06:01;2;2;
56688;PMS5003;42565;53.342;-1.534;2022-07-06T12:08:28;1;1;
56688;PMS5003;42565;53.342;-1.534;2022-07-06T12:10:56;3;2;
56688;PMS5003;42565;53.342;-1.534;2022-07-06T12:13:23;3;2;
56688;PMS5003;42565;53.342;-1.534;2022-07-06T12:15:51;3;3;
56688;PMS5003;42565;53.342;-1.534;2022-07-06T12:18:18;6;4;
56688;PMS5003;42565;53.342;-1.534;2022-07-06T12:20:45;3;2;
56688;PMS5003;42565;53.342;-1.534;2022-07-06T12:23:13;4;4;
56688;PMS5003;42565;53.342;-1.534;2022-07-06T12:25:40;5;3;
56688;PMS5003;42565;53.342;-1.534;2022-07-06T12:28:07;3;3;
56688;PMS5003;42565;53.342;-1.534;2022-07-06T12:30:48;5;4;
56688;PMS5003;42565;53.342;-1.534;2022-07-06T12:33:16;6;5;
56688;PMS5003;42565;53.342;-1.534;2022-07-06T12:35:43;4;4;
56688;PMS5003;42565;53.342;-1.534;2022-07-06T12:38:10;5;5;
56688;PMS5003;42565;53.342;-1.534;2022-07-06T12:40:38;4;4;
56688;PMS5003;42565;53.342;-1.534;2022-07-06T12:43:05;3;3;
56688;PMS5003;42565;53.342;-1.534;2022-07-06T12:45:33;7;5;
56688;PMS5003;42565;53.342;-1.534;2022-07-06T12:48:00;5;4;
56688;PMS5003;42565;53.342;-1.534;2022-07-06T12:50:32;4;4;
56688;PMS5003;42565;53.342;-1.534;2022-07-06T12:53:00;4;4;
56688;PMS5003;42565;53.342;-1.534;2022-07-06T12:55:29;3;3;
56688;PMS5003;42565;53.342;-1.534;2022-07-06T12:57:57;7;7;
56688;PMS5003;42565;53.342;-1.534;2022-07-06T13:00:24;7;6;
56688;PMS5003;42565;53.342;-1.534;2022-07-06T13:02:52;5;5;
56688;PMS5003;42565;53.342;-1.534;2022-07-06T13:05:22;4;3;
56688;PMS5003;42565;53.342;-1.534;2022-07-06T13:07:51;4;3;
56688;PMS5003;42565;53.342;-1.534;2022-07-06T13:10:18;4;4;
56688;PMS5003;42565;53.342;-1.534;2022-07-06T13:12:44;5;3;
56688;PMS5003;42565;53.342;-1.534;2022-07-06T13:15:12;4;2;
56688;PMS5003;42565;53.342;-1.534;2022-07-06T13:17:39;2;2;
56688;PMS5003;42565;53.342;-1.534;2022-07-06T13:20:08;4;3;
56688;PMS5003;42565;53.342;-1.534;2022-07-06T13:22:37;2;2;
56688;PMS5003;42565;53.342;-1.534;2022-07-06T13:25:05;5;5;
56688;PMS5003;42565;53.342;-1.534;2022-07-06T13:27:33;6;4;
56688;PMS5003;42565;53.342;-1.534;2022-07-06T13:30:00;3;3;
56688;PMS5003;42565;53.342;-1.534;2022-07-06T13:32:28;4;4;
56688;PMS5003;42565;53.342;-1.534;2022-07-06T13:34:54;4;4;
56688;PMS5003;42565;53.342;-1.534;2022-07-06T13:37:22;2;2;
56688;PMS5003;42565;53.342;-1.534;2022-07-06T13:39:50;3;3;
56688;PMS5003;42565;53.342;-1.534;2022-07-06T13:42:17;4;2;
56688;PMS5003;42565;53.342;-1.534;2022-07-06T13:44:44;2;2;
56688;PMS5003;42565;53.342;-1.534;2022-07-06T13:47:12;4;4;
56688;PMS5003;42565;53.342;-1.534;2022-07-06T13:49:39;3;2;
56688;PMS5003;42565;53.342;-1.534;2022-07-06T13:52:06;3;2;
56688;PMS5003;42565;53.342;-1.534;2022-07-06T13:54:34;3;3;
56688;PMS5003;42565;53.342;-1.534;2022-07-06T13:57:01;3;3;
56688;PMS5003;42565;53.342;-1.534;2022-07-06T13:59:30;2;2;
56688;PMS5003;42565;53.342;-1.534;2022-07-06T14:01:57;5;5;
56688;PMS5003;42565;53.342;-1.534;2022-07-06T14:04:25;4;4;
56688;PMS5003;42565;53.342;-1.534;2022-07-06T14:06:52;4;3;
56688;PMS5003;42565;53.342;-1.534;2022-07-06T14:09:20;3;3;
56688;PMS5003;42565;53.342;-1.534;2022-07-06T14:11:47;5;4;
56688;PMS5003;42565;53.342;-1.534;2022-07-06T14:14:14;2;2;
56688;PMS5003;42565;53.342;-1.534;2022-07-06T14:16:41;3;3;
56688;PMS5003;42565;53.342;-1.534;2022-07-06T14:19:09;2;2;
56688;PMS5003;42565;53.342;-1.534;2022-07-06T14:21:36;3;3;
56688;PMS5003;42565;53.342;-1.534;2022-07-06T14:24:04;3;3;
56688;PMS5003;42565;53.342;-1.534;2022-07-06T14:26:32;3;3;
56688;PMS5003;42565;53.342;-1.534;2022-07-06T14:29:00;4;4;
56688;PMS5003;42565;53.342;-1.534;2022-07-06T14:31:27;1;1;
56688;PMS5003;42565;53.342;-1.534;2022-07-06T14:33:55;3;3;
56688;PMS5003;42565;53.342;-1.534;2022-07-06T14:36:22;4;4;
56688;PMS5003;42565;53.342;-1.534;2022-07-06T14:38:50;2;2;
56688;PMS5003;42565;53.342;-1.534;2022-07-06T14:41:17;3;2;
56688;PMS5003;42565;53.342;-1.534;2022-07-06T14:43:45;2;2;
56688;PMS5003;42565;53.342;-1.534;2022-07-06T14:46:12;1;1;
56688;PMS5003;42565;53.342;-1.534;2022-07-06T14:48:40;2;1;
56688;PMS5003;42565;53.342;-1.534;2022-07-06T14:51:07;2;2;
56688;PMS5003;42565;53.342;-1.534;2022-07-06T14:53:35;1;1;
56688;PMS5003;42565;53.342;-1.534;2022-07-06T14:56:02;1;1;
56688;PMS5003;42565;53.342;-1.534;2022-07-06T14:58:30;3;3;
56688;PMS5003;42565;53.342;-1.534;2022-07-06T15:00:57;2;2;
56688;PMS5003;42565;53.342;-1.534;2022-07-06T15:03:25;1;1;
56688;PMS5003;42565;53.342;-1.534;2022-07-06T15:05:52;1;1;
56688;PMS5003;42565;53.342;-1.534;2022-07-06T15:08:20;3;3;
56688;PMS5003;42565;53.342;-1.534;2022-07-06T15:10:47;1;1;
56688;PMS5003;42565;53.342;-1.534;2022-07-06T15:13:15;0;0;
56688;PMS5003;42565;53.342;-1.534;2022-07-06T15:15:42;1;1;
56688;PMS5003;42565;53.342;-1.534;2022-07-06T15:18:10;0;0;
56688;PMS5003;42565;53.342;-1.534;2022-07-06T15:20:38;2;2;
56688;PMS5003;42565;53.342;-1.534;2022-07-06T15:23:05;2;2;
56688;PMS5003;42565;53.342;-1.534;2022-07-06T15:25:33;2;2;
56688;PMS5003;42565;53.342;-1.534;2022-07-06T15:28:00;2;2;
56688;PMS5003;42565;53.342;-1.534;2022-07-06T15:30:27;3;3;
56688;PMS5003;42565;53.342;-1.534;2022-07-06T15:32:55;2;2;
56688;PMS5003;42565;53.342;-1.534;2022-07-06T15:35:22;3;2;
56688;PMS5003;42565;53.342;-1.534;2022-07-06T15:37:50;2;2;
56688;PMS5003;42565;53.342;-1.534;2022-07-06T15:40:18;2;2;
56688;PMS5003;42565;53.342;-1.534;2022-07-06T15:42:47;3;2;
56688;PMS5003;42565;53.342;-1.534;2022-07-06T15:45:14;2;2;
56688;PMS5003;42565;53.342;-1.534;2022-07-06T15:47:42;1;1;
56688;PMS5003;42565;53.342;-1.534;2022-07-06T15:50:09;1;1;
56688;PMS5003;42565;53.342;-1.534;2022-07-06T15:52:37;1;1;
56688;PMS5003;42565;53.342;-1.534;2022-07-06T15:55:04;2;2;
56688;PMS5003;42565;53.342;-1.534;2022-07-06T15:57:32;3;2;
56688;PMS5003;42565;53.342;-1.534;2022-07-06T15:59:59;1;1;
56688;PMS5003;42565;53.342;-1.534;2022-07-06T16:02:27;3;2;
56688;PMS5003;42565;53.342;-1.534;2022-07-06T16:04:54;2;2;
56688;PMS5003;42565;53.342;-1.534;2022-07-06T16:07:22;2;2;
56688;PMS5003;42565;53.342;-1.534;2022-07-06T16:09:49;2;2;
56688;PMS5003;42565;53.342;-1.534;2022-07-06T16:12:16;4;3;
56688;PMS5003;42565;53.342;-1.534;2022-07-06T16:14:43;3;2;
56688;PMS5003;42565;53.342;-1.534;2022-07-06T16:17:09;2;2;
56688;PMS5003;42565;53.342;-1.534;2022-07-06T16:19:37;2;2;
56688;PMS5003;42565;53.342;-1.534;2022-07-06T16:22:04;2;2;
56688;PMS5003;42565;53.342;-1.534;2022-07-06T16:24:32;2;2;
56688;PMS5003;42565;53.342;-1.534;2022-07-06T16:27:00;2;1;
56688;PMS5003;42565;53.342;-1.534;2022-07-06T16:29:27;3;3;
56688;PMS5003;42565;53.342;-1.534;2022-07-06T16:31:54;1;1;
56688;PMS5003;42565;53.342;-1.534;2022-07-06T16:34:22;2;2;
56688;PMS5003;42565;53.342;-1.534;2022-07-06T16:36:49;2;2;
56688;PMS5003;42565;53.342;-1.534;2022-07-06T16:39:17;2;2;
56688;PMS5003;42565;53.342;-1.534;2022-07-06T16:41:45;3;3;